Time;durP1;ratioP1;P1;durP2;ratioP2;P2;SDS_P1;SDS_P2;PMS_P1;PMS_P2;Temp;Humidity;BMP_temperature;BMP_pressure;BME280_temperature;BME280_humidity;BME280_pressure;Samples;Min_cycle;Max_cycle;Signal;HPM_P1;HPM_P2
2023/06/30 00:01:57;;;;;;;;;;;15.10;99.90;;;;;;5106164;28;19919;-76
2023/06/30 00:04:23;;;;;;;;;;;15.00;99.90;;;;;;5102094;28;19930;-75
2023/06/30 00:06:51;;;;;;;;;;;15.00;99.90;;;;;;5101162;28;19920;-79
2023/06/30 00:09:20;;;;;;;;;;;14.90;99.90;;;;;;5106520;28;19920;-78
2023/06/30 00:11:50;;;;;;;;;;;14.90;99.90;;;;;;5102669;27;19927;-77
2023/06/30 00:14:15;;;;;;;;;;;14.90;99.90;;;;;;5121128;27;19919;-76
2023/06/30 00:16:41;;;;;;;;;;;14.90;99.90;;;;;;5104152;28;19911;-77
2023/06/30 00:19:08;;;;;;;;;;;14.80;99.90;;;;;;5108782;28;19920;-76
2023/06/30 00:21:34;;;;;;;;;;;14.80;99.90;;;;;;5114312;27;19923;-77
2023/06/30 00:24:04;;;;;;;;;;;14.80;99.90;;;;;;5101418;28;19966;-75
2023/06/30 00:26:30;;;;;;;;;;;14.80;99.90;;;;;;5099819;28;19959;-77
2023/06/30 00:28:56;;;;;;;;;;;14.70;99.90;;;;;;5117886;27;19920;-76
2023/06/30 00:31:21;;;;;;;;;;;14.70;99.90;;;;;;5103809;28;19920;-76
2023/06/30 00:33:47;;;;;;;;;;;14.70;99.90;;;;;;5106865;28;20373;-76
2023/06/30 00:36:12;;;;;;;;;;;14.70;99.90;;;;;;5111043;27;19927;-76
2023/06/30 00:38:38;;;;;;;;;;;14.60;99.90;;;;;;5107856;28;19920;-77
2023/06/30 00:41:03;;;;;;;;;;;14.60;99.90;;;;;;5108243;28;19944;-77
2023/06/30 00:43:29;;;;;;;;;;;14.60;99.90;;;;;;5097926;28;19920;-76
2023/06/30 00:45:55;;;;;;;;;;;14.60;99.90;;;;;;5087500;28;19926;-77
2023/06/30 00:48:20;;;;;;;;;;;14.50;99.90;;;;;;5113757;27;19919;-76
2023/06/30 00:50:46;;;;;;;;;;;14.50;99.90;;;;;;5109279;27;19920;-77
2023/06/30 00:53:12;;;;;;;;;;;14.40;99.90;;;;;;5114956;27;19919;-77
2023/06/30 00:55:39;;;;;;;;;;;14.50;99.90;;;;;;5091020;27;19920;-76
2023/06/30 00:58:05;;;;;;;;;;;14.40;99.90;;;;;;5102460;27;20334;-76
2023/06/30 01:00:31;;;;;;;;;;;14.50;99.90;;;;;;5110210;28;20009;-77
2023/06/30 01:03:09;;;;;;;;;;;14.40;99.90;;;;;;5110920;28;19926;-77
2023/06/30 01:05:37;;;;;;;;;;;14.40;99.90;;;;;;5101498;28;19916;-76
2023/06/30 01:08:09;;;;;;;;;;;14.40;99.90;;;;;;5110300;27;20289;-77
2023/06/30 01:10:34;;;;;;;;;;;14.40;99.90;;;;;;5109530;28;19927;-77
2023/06/30 01:13:01;;;;;;;;;;;14.40;99.90;;;;;;5112282;27;19919;-76
2023/06/30 01:15:27;;;;;;;;;;;14.40;99.90;;;;;;5084779;28;20052;-76
2023/06/30 01:17:54;;;;;;;;;;;14.30;99.90;;;;;;5108876;28;19981;-76
2023/06/30 01:20:20;;;;;;;;;;;14.30;99.90;;;;;;5109140;27;19919;-75
2023/06/30 01:23:15;;;;;;;;;;;14.30;99.90;;;;;;5112495;27;20006;-77
2023/06/30 01:25:40;;;;;;;;;;;14.30;99.90;;;;;;5091619;27;19923;-77
2023/06/30 01:28:07;;;;;;;;;;;14.40;99.90;;;;;;5122223;27;20341;-77
2023/06/30 01:30:33;;;;;;;;;;;14.40;99.90;;;;;;5122121;27;19926;-76
2023/06/30 01:32:59;;;;;;;;;;;14.30;99.90;;;;;;5088138;28;19920;-76
2023/06/30 01:35:25;;;;;;;;;;;14.20;99.90;;;;;;5121184;27;20378;-77
2023/06/30 01:37:51;;;;;;;;;;;14.20;99.90;;;;;;5102893;28;19926;-77
2023/06/30 01:40:16;;;;;;;;;;;14.20;99.90;;;;;;5115535;27;19919;-76
2023/06/30 01:42:42;;;;;;;;;;;14.20;99.90;;;;;;5126110;27;19920;-76
2023/06/30 01:45:09;;;;;;;;;;;14.20;99.90;;;;;;5117492;27;19951;-76
2023/06/30 01:47:35;;;;;;;;;;;14.10;99.90;;;;;;5120267;27;19973;-77
2023/06/30 01:50:01;;;;;;;;;;;14.10;99.90;;;;;;5115991;27;19919;-79
2023/06/30 01:52:27;;;;;;;;;;;14.10;99.90;;;;;;5127222;27;19919;-78
2023/06/30 01:54:52;;;;;;;;;;;14.10;99.90;;;;;;5124671;27;20424;-77
2023/06/30 01:57:18;;;;;;;;;;;14.10;99.90;;;;;;5080058;28;19995;-77
2023/06/30 01:59:46;;;;;;;;;;;14.00;99.90;;;;;;5109280;27;19923;-76
2023/06/30 02:02:12;;;;;;;;;;;14.30;99.90;;;;;;5111186;28;19964;-76
2023/06/30 02:04:38;;;;;;;;;;;14.00;99.90;;;;;;5104418;27;19919;-76
2023/06/30 02:07:03;;;;;;;;;;;14.00;99.90;;;;;;5096794;28;20014;-78
2023/06/30 02:09:29;;;;;;;;;;;14.00;99.90;;;;;;5111079;27;20327;-76
2023/06/30 02:11:54;;;;;;;;;;;13.90;99.90;;;;;;5126022;27;19928;-76
2023/06/30 02:14:20;;;;;;;;;;;13.90;99.90;;;;;;5105299;27;19924;-76
2023/06/30 02:16:48;;;;;;;;;;;13.90;99.90;;;;;;5118827;27;19919;-77
2023/06/30 02:19:14;;;;;;;;;;;13.90;99.90;;;;;;5111665;27;19927;-76
2023/06/30 02:21:41;;;;;;;;;;;13.80;99.90;;;;;;5108461;27;20290;-77
2023/06/30 02:24:07;;;;;;;;;;;13.80;99.90;;;;;;5095997;28;20377;-76
2023/06/30 02:26:33;;;;;;;;;;;13.80;99.90;;;;;;5103629;28;19927;-76
2023/06/30 02:28:58;;;;;;;;;;;13.80;99.90;;;;;;5105705;27;19924;-78
2023/06/30 02:31:25;;;;;;;;;;;13.80;99.90;;;;;;5118074;28;20362;-77
2023/06/30 02:33:50;;;;;;;;;;;13.80;99.90;;;;;;5113639;28;19942;-78
2023/06/30 02:36:16;;;;;;;;;;;13.70;99.90;;;;;;5109454;28;19920;-76
2023/06/30 02:38:41;;;;;;;;;;;13.70;99.90;;;;;;5102556;28;19920;-78
2023/06/30 02:41:07;;;;;;;;;;;13.70;99.90;;;;;;5102587;28;20011;-76
2023/06/30 02:43:32;;;;;;;;;;;13.70;99.90;;;;;;5116796;28;20057;-77
2023/06/30 02:45:58;;;;;;;;;;;13.70;99.90;;;;;;5113167;27;20288;-75
2023/06/30 02:48:23;;;;;;;;;;;13.60;99.90;;;;;;5112049;28;19923;-77
2023/06/30 02:50:49;;;;;;;;;;;13.60;99.90;;;;;;5100219;28;19920;-76
2023/06/30 02:53:14;;;;;;;;;;;13.60;99.90;;;;;;5112967;28;19972;-78
2023/06/30 02:55:40;;;;;;;;;;;13.60;99.90;;;;;;5070332;28;19920;-75
2023/06/30 02:58:06;;;;;;;;;;;13.50;99.90;;;;;;5065420;28;19924;-77
2023/06/30 03:00:31;;;;;;;;;;;13.50;99.90;;;;;;5068622;28;19920;-77
2023/06/30 03:02:57;;;;;;;;;;;13.60;99.90;;;;;;5077391;28;19928;-77
2023/06/30 03:05:22;;;;;;;;;;;13.50;99.90;;;;;;5086797;28;19965;-76
2023/06/30 03:07:48;;;;;;;;;;;13.50;99.90;;;;;;5070884;28;20340;-75
2023/06/30 03:10:13;;;;;;;;;;;13.50;99.90;;;;;;5061927;28;20425;-76
2023/06/30 03:12:42;;;;;;;;;;;13.50;99.90;;;;;;5097234;28;20011;-77
2023/06/30 03:15:08;;;;;;;;;;;13.50;99.90;;;;;;5086969;28;20343;-76
2023/06/30 03:17:33;;;;;;;;;;;13.40;99.90;;;;;;5067688;28;20445;-76
2023/06/30 03:19:59;;;;;;;;;;;13.50;99.90;;;;;;5069832;28;20006;-76
2023/06/30 03:22:24;;;;;;;;;;;13.40;99.90;;;;;;5052803;28;19990;-77
2023/06/30 03:24:50;;;;;;;;;;;13.40;99.90;;;;;;5071844;28;20022;-77
2023/06/30 03:27:16;;;;;;;;;;;13.50;99.90;;;;;;5077432;28;20011;-75
2023/06/30 03:29:41;;;;;;;;;;;13.40;99.90;;;;;;5077032;28;19920;-76
2023/06/30 03:32:07;;;;;;;;;;;13.40;99.90;;;;;;5070716;28;19943;-77
2023/06/30 03:34:32;;;;;;;;;;;13.40;99.90;;;;;;5067810;28;19921;-76
2023/06/30 03:36:58;;;;;;;;;;;13.40;99.90;;;;;;5068166;28;20552;-76
2023/06/30 03:39:23;;;;;;;;;;;13.40;99.90;;;;;;5065141;28;19974;-76
2023/06/30 03:41:49;;;;;;;;;;;13.30;99.90;;;;;;5083730;28;19921;-76
2023/06/30 03:44:15;;;;;;;;;;;13.30;99.90;;;;;;5069574;28;20340;-75
2023/06/30 03:46:40;;;;;;;;;;;13.30;99.90;;;;;;5071165;28;20281;-77
2023/06/30 03:49:06;;;;;;;;;;;13.30;99.90;;;;;;5068337;28;19928;-77
2023/06/30 03:51:32;;;;;;;;;;;13.60;99.90;;;;;;5067442;28;19964;-76
2023/06/30 03:53:57;;;;;;;;;;;13.30;99.90;;;;;;5066008;28;19955;-76
2023/06/30 03:56:23;;;;;;;;;;;13.40;99.90;;;;;;5057792;28;19931;-77
2023/06/30 03:58:48;;;;;;;;;;;13.30;99.90;;;;;;5056710;28;19960;-76
2023/06/30 04:01:14;;;;;;;;;;;13.30;99.90;;;;;;5058169;28;20363;-78
2023/06/30 04:03:40;;;;;;;;;;;13.40;99.90;;;;;;5082962;28;19948;-77
2023/06/30 04:06:06;;;;;;;;;;;13.40;99.90;;;;;;5065305;28;19921;-76
2023/06/30 04:08:31;;;;;;;;;;;13.40;99.90;;;;;;5075499;28;19973;-76
2023/06/30 04:10:57;;;;;;;;;;;13.40;99.90;;;;;;5053483;28;19920;-75
2023/06/30 04:13:22;;;;;;;;;;;13.40;99.90;;;;;;5055324;28;20007;-75
2023/06/30 04:15:48;;;;;;;;;;;13.40;99.90;;;;;;5056967;28;19934;-75
2023/06/30 04:18:13;;;;;;;;;;;13.50;99.90;;;;;;5054362;28;19925;-76
2023/06/30 04:20:39;;;;;;;;;;;13.50;99.90;;;;;;5073595;28;19920;-76
2023/06/30 04:23:06;;;;;;;;;;;13.50;99.90;;;;;;5068068;28;19921;-76
2023/06/30 04:25:31;;;;;;;;;;;13.50;99.90;;;;;;5062740;28;19920;-76
2023/06/30 04:27:57;;;;;;;;;;;13.50;99.90;;;;;;5061739;28;20507;-76
2023/06/30 04:30:22;;;;;;;;;;;13.80;99.90;;;;;;5059818;28;19928;-77
2023/06/30 04:32:48;;;;;;;;;;;13.60;99.90;;;;;;5063439;28;19921;-76
2023/06/30 04:35:14;;;;;;;;;;;13.70;99.90;;;;;;5066058;28;19924;-77
2023/06/30 04:37:43;;;;;;;;;;;13.70;99.90;;;;;;5073710;28;19927;-76
2023/06/30 04:40:08;;;;;;;;;;;13.80;99.90;;;;;;5067448;28;19920;-76
2023/06/30 04:42:35;;;;;;;;;;;13.80;99.90;;;;;;5068887;28;19924;-76
2023/06/30 04:45:00;;;;;;;;;;;13.80;99.90;;;;;;5065970;28;19999;-75
2023/06/30 04:47:27;;;;;;;;;;;13.80;99.90;;;;;;5066697;28;20488;-76
2023/06/30 04:49:53;;;;;;;;;;;13.60;99.90;;;;;;5068429;28;19928;-75
2023/06/30 04:52:18;;;;;;;;;;;13.90;99.90;;;;;;5063785;28;20408;-76
2023/06/30 04:54:44;;;;;;;;;;;14.00;99.90;;;;;;5063609;28;20129;-76
2023/06/30 04:57:10;;;;;;;;;;;14.10;99.90;;;;;;5105910;28;19926;-77
2023/06/30 04:59:35;;;;;;;;;;;14.10;99.90;;;;;;5094276;28;19943;-76
2023/06/30 05:02:01;;;;;;;;;;;14.20;99.90;;;;;;5104443;28;20015;-75
2023/06/30 05:04:27;;;;;;;;;;;14.20;99.90;;;;;;5110394;27;19924;-76
2023/06/30 05:06:52;;;;;;;;;;;14.30;99.90;;;;;;5099979;28;20403;-76
2023/06/30 05:09:18;;;;;;;;;;;14.40;99.90;;;;;;5096230;28;19946;-76
2023/06/30 05:11:43;;;;;;;;;;;14.50;99.90;;;;;;5119881;27;19959;-77
2023/06/30 05:14:09;;;;;;;;;;;14.60;99.90;;;;;;5107048;28;19959;-76
2023/06/30 05:16:35;;;;;;;;;;;14.70;99.90;;;;;;5112730;28;19920;-77
2023/06/30 05:19:00;;;;;;;;;;;14.90;99.90;;;;;;5088598;28;20358;-76
2023/06/30 05:21:26;;;;;;;;;;;15.00;99.90;;;;;;5103062;28;19944;-76
2023/06/30 05:23:51;;;;;;;;;;;15.10;99.90;;;;;;5114896;28;19919;-77
2023/06/30 05:26:17;;;;;;;;;;;15.20;99.90;;;;;;5094868;28;19928;-76
2023/06/30 05:28:42;;;;;;;;;;;15.20;99.90;;;;;;5114809;28;20407;-77
2023/06/30 05:31:08;;;;;;;;;;;15.30;99.90;;;;;;5110211;28;19968;-77
2023/06/30 05:33:33;;;;;;;;;;;15.40;99.90;;;;;;5099259;28;20011;-78
2023/06/30 05:35:59;;;;;;;;;;;15.50;99.90;;;;;;5098797;28;19927;-75
2023/06/30 05:38:24;;;;;;;;;;;15.60;99.90;;;;;;5099059;28;20002;-79
2023/06/30 05:40:50;;;;;;;;;;;15.60;99.90;;;;;;5108529;28;19920;-73
2023/06/30 05:43:17;;;;;;;;;;;15.80;99.90;;;;;;5114734;27;19970;-77
2023/06/30 05:45:46;;;;;;;;;;;15.80;99.90;;;;;;5083801;28;20109;-76
2023/06/30 05:48:11;;;;;;;;;;;16.40;99.90;;;;;;5101612;28;19931;-77
2023/06/30 05:50:37;;;;;;;;;;;15.90;99.90;;;;;;5112000;28;19945;-76
2023/06/30 05:53:03;;;;;;;;;;;15.90;99.90;;;;;;5109710;28;19942;-76
2023/06/30 05:55:28;;;;;;;;;;;16.10;99.90;;;;;;5082308;28;19925;-76
2023/06/30 05:57:54;;;;;;;;;;;16.20;99.90;;;;;;5102613;28;20383;-76
2023/06/30 06:00:20;;;;;;;;;;;16.20;99.90;;;;;;5092119;28;19924;-76
2023/06/30 06:02:45;;;;;;;;;;;16.30;99.90;;;;;;5096900;28;20027;-75
2023/06/30 06:05:11;;;;;;;;;;;16.40;99.90;;;;;;5107125;28;19920;-76
2023/06/30 06:07:37;;;;;;;;;;;16.60;99.90;;;;;;5099550;28;19927;-79
2023/06/30 06:10:02;;;;;;;;;;;16.70;99.90;;;;;;5103868;27;19982;-75
2023/06/30 06:12:28;;;;;;;;;;;16.90;99.90;;;;;;5117274;27;20355;-76
2023/06/30 06:14:54;;;;;;;;;;;17.10;99.90;;;;;;5108149;28;20304;-77
2023/06/30 06:17:19;;;;;;;;;;;17.30;99.90;;;;;;5092898;28;19920;-77
2023/06/30 06:19:45;;;;;;;;;;;17.50;99.90;;;;;;5111043;28;20002;-77
2023/06/30 06:22:10;;;;;;;;;;;17.60;99.90;;;;;;5109644;28;20300;-77
2023/06/30 06:24:36;;;;;;;;;;;17.60;99.90;;;;;;5097534;28;19920;-77
2023/06/30 06:27:04;;;;;;;;;;;17.60;99.90;;;;;;5100948;27;19924;-76
2023/06/30 06:29:33;;;;;;;;;;;17.60;99.90;;;;;;5107327;28;19935;-76
2023/06/30 06:31:59;;;;;;;;;;;17.50;99.90;;;;;;5088421;28;19920;-78
2023/06/30 06:34:27;;;;;;;;;;;17.60;99.90;;;;;;5099685;27;20006;-76
2023/06/30 06:36:52;;;;;;;;;;;17.60;99.90;;;;;;5106749;28;19928;-77
2023/06/30 06:39:19;;;;;;;;;;;17.60;99.90;;;;;;5111055;27;19993;-76
2023/06/30 06:41:44;;;;;;;;;;;17.80;99.90;;;;;;5117240;28;20384;-76
2023/06/30 06:44:10;;;;;;;;;;;17.90;99.90;;;;;;5108548;28;19965;-77
2023/06/30 06:46:35;;;;;;;;;;;17.90;99.90;;;;;;5083253;28;19920;-77
2023/06/30 06:49:01;;;;;;;;;;;18.10;99.90;;;;;;5118460;27;19919;-77
2023/06/30 06:51:26;;;;;;;;;;;18.40;99.90;;;;;;5102218;28;20258;-77
2023/06/30 06:53:53;;;;;;;;;;;18.20;99.90;;;;;;5112350;27;19919;-77
2023/06/30 06:56:18;;;;;;;;;;;18.30;99.90;;;;;;5081118;28;19984;-76
2023/06/30 06:58:45;;;;;;;;;;;18.40;99.90;;;;;;5101271;28;20441;-77
2023/06/30 07:01:11;;;;;;;;;;;18.40;99.90;;;;;;5095871;28;19919;-77
2023/06/30 07:03:37;;;;;;;;;;;18.50;99.90;;;;;;5106863;28;20000;-75
2023/06/30 07:06:06;;;;;;;;;;;18.40;99.90;;;;;;5106704;27;19975;-77
2023/06/30 07:08:34;;;;;;;;;;;18.40;99.90;;;;;;5103900;28;19927;-76
2023/06/30 07:11:03;;;;;;;;;;;18.40;99.90;;;;;;5099233;28;19920;-75
2023/06/30 07:13:29;;;;;;;;;;;18.50;99.90;;;;;;5094945;28;19919;-76
2023/06/30 07:15:55;;;;;;;;;;;18.60;99.90;;;;;;5098830;28;19927;-75
2023/06/30 07:18:21;;;;;;;;;;;18.60;99.90;;;;;;5104558;28;20443;-76
2023/06/30 07:20:47;;;;;;;;;;;18.70;99.90;;;;;;5080745;28;19927;-77
2023/06/30 07:23:16;;;;;;;;;;;18.70;99.90;;;;;;5100223;28;19920;-77
2023/06/30 07:25:44;;;;;;;;;;;18.70;99.90;;;;;;5101048;28;19923;-75
2023/06/30 07:28:10;;;;;;;;;;;18.60;99.90;;;;;;5111335;27;19920;-77
2023/06/30 07:30:36;;;;;;;;;;;18.50;99.90;;;;;;5131658;27;20249;-77
2023/06/30 07:33:02;;;;;;;;;;;18.50;99.90;;;;;;5120506;27;19924;-75
2023/06/30 07:35:27;;;;;;;;;;;18.40;99.90;;;;;;5119994;27;19920;-76
2023/06/30 07:37:53;;;;;;;;;;;18.30;99.90;;;;;;5091888;27;20080;-78
2023/06/30 07:40:19;;;;;;;;;;;18.10;99.90;;;;;;5127303;27;20283;-77
2023/06/30 07:42:44;;;;;;;;;;;18.00;99.90;;;;;;5115530;27;20018;-78
2023/06/30 07:45:14;;;;;;;;;;;18.00;99.90;;;;;;5114735;28;19919;-77
2023/06/30 07:47:40;;;;;;;;;;;18.10;99.90;;;;;;5115302;28;20361;-76
2023/06/30 07:50:11;;;;;;;;;;;18.30;99.90;;;;;;5102382;27;19919;-76
2023/06/30 07:52:44;;;;;;;;;;;18.60;99.90;;;;;;5120044;27;19919;-77
2023/06/30 07:55:12;;;;;;;;;;;18.80;99.90;;;;;;5112513;27;19920;-76
2023/06/30 07:57:41;;;;;;;;;;;19.00;99.90;;;;;;5092881;28;19919;-76
2023/06/30 08:00:07;;;;;;;;;;;19.10;99.90;;;;;;5105977;27;20049;-78
2023/06/30 08:02:32;;;;;;;;;;;19.10;99.90;;;;;;5104043;27;19919;-76
2023/06/30 08:04:58;;;;;;;;;;;19.10;99.90;;;;;;5092668;28;19920;-76
2023/06/30 08:07:23;;;;;;;;;;;18.90;99.90;;;;;;5097441;28;20361;-77
2023/06/30 08:09:49;;;;;;;;;;;18.70;99.90;;;;;;5116908;27;19955;-78
2023/06/30 08:12:15;;;;;;;;;;;18.40;99.90;;;;;;5114057;27;19920;-78
2023/06/30 08:14:40;;;;;;;;;;;18.30;99.90;;;;;;5097200;28;19920;-78
2023/06/30 08:17:06;;;;;;;;;;;18.20;99.90;;;;;;5088003;28;19919;-77
2023/06/30 08:19:31;;;;;;;;;;;18.40;99.90;;;;;;5109649;28;19927;-78
2023/06/30 08:21:57;;;;;;;;;;;18.60;99.90;;;;;;5090726;28;19920;-78
2023/06/30 08:24:23;;;;;;;;;;;18.80;99.90;;;;;;5090549;28;19927;-77
2023/06/30 08:26:48;;;;;;;;;;;19.10;99.90;;;;;;5117032;27;19920;-78
2023/06/30 08:29:14;;;;;;;;;;;19.20;99.90;;;;;;5103590;28;19923;-80
2023/06/30 08:31:40;;;;;;;;;;;19.10;99.90;;;;;;5089695;28;19927;-79
2023/06/30 08:34:05;;;;;;;;;;;19.20;99.90;;;;;;5086615;28;19946;-79
2023/06/30 08:36:32;;;;;;;;;;;19.30;99.90;;;;;;5100433;28;19919;-77
2023/06/30 08:38:58;;;;;;;;;;;19.40;99.90;;;;;;5086878;28;19927;-79
2023/06/30 08:41:34;;;;;;;;;;;19.60;99.90;;;;;;5102960;28;19924;-81
2023/06/30 08:44:00;;;;;;;;;;;19.70;99.90;;;;;;5096505;28;19916;-78
2023/06/30 08:46:27;;;;;;;;;;;20.00;99.90;;;;;;5084437;28;19988;-78
2023/06/30 08:48:53;;;;;;;;;;;20.10;99.90;;;;;;5112458;27;20046;-80
2023/06/30 08:51:19;;;;;;;;;;;20.30;99.90;;;;;;5114529;28;19946;-79
2023/06/30 08:53:48;;;;;;;;;;;20.40;99.90;;;;;;5090573;27;19924;-78
2023/06/30 08:56:15;;;;;;;;;;;20.40;99.90;;;;;;5105173;28;19975;-79
2023/06/30 08:58:41;;;;;;;;;;;20.40;99.90;;;;;;5090810;28;19920;-79
2023/06/30 09:01:07;;;;;;;;;;;20.20;99.90;;;;;;5111595;28;20369;-77
2023/06/30 09:03:33;;;;;;;;;;;20.10;99.90;;;;;;5110100;28;19927;-79
2023/06/30 09:05:59;;;;;;;;;;;19.90;99.90;;;;;;5124688;27;19923;-80
2023/06/30 09:08:37;;;;;;;;;;;20.10;99.90;;;;;;5089523;28;19969;-78
2023/06/30 09:11:04;;;;;;;;;;;20.10;99.90;;;;;;5109485;27;19931;-78
2023/06/30 09:13:30;;;;;;;;;;;20.10;99.90;;;;;;5116244;28;20044;-80
2023/06/30 09:15:57;;;;;;;;;;;20.00;99.90;;;;;;5110926;27;19923;-79
2023/06/30 09:18:23;;;;;;;;;;;19.90;99.90;;;;;;5106817;28;19919;-77
2023/06/30 09:20:49;;;;;;;;;;;19.90;99.90;;;;;;5099698;28;19920;-77
2023/06/30 09:23:15;;;;;;;;;;;20.00;99.70;;;;;;5105565;28;19920;-77
2023/06/30 09:25:41;;;;;;;;;;;20.10;99.50;;;;;;5108893;28;19943;-78
2023/06/30 09:28:14;;;;;;;;;;;20.00;98.50;;;;;;5093457;28;19920;-79
2023/06/30 09:30:42;;;;;;;;;;;19.90;97.80;;;;;;5102390;28;20323;-78
2023/06/30 09:33:08;;;;;;;;;;;19.70;97.70;;;;;;5111112;28;20439;-80
2023/06/30 09:35:38;;;;;;;;;;;19.80;97.90;;;;;;5100624;28;19935;-77
2023/06/30 09:38:07;;;;;;;;;;;19.90;98.30;;;;;;5108425;28;19942;-80
2023/06/30 09:40:33;;;;;;;;;;;20.00;98.60;;;;;;5107881;28;20249;-76
2023/06/30 09:42:58;;;;;;;;;;;19.90;99.10;;;;;;5109321;28;19926;-79
2023/06/30 09:45:24;;;;;;;;;;;19.80;98.60;;;;;;5107098;28;19984;-78
2023/06/30 09:47:50;;;;;;;;;;;19.90;99.70;;;;;;5108517;27;19920;-77
2023/06/30 09:50:20;;;;;;;;;;;20.20;96.80;;;;;;5090882;27;19944;-77
2023/06/30 09:52:45;;;;;;;;;;;20.30;96.70;;;;;;5100224;28;19920;-77
2023/06/30 09:55:13;;;;;;;;;;;20.50;95.40;;;;;;5111238;27;19919;-77
2023/06/30 09:57:43;;;;;;;;;;;20.70;96.40;;;;;;5112393;27;19931;-77
2023/06/30 10:00:12;;;;;;;;;;;20.70;96.20;;;;;;5087591;28;19924;-77
2023/06/30 10:02:39;;;;;;;;;;;20.50;94.90;;;;;;5104336;27;19920;-77
2023/06/30 10:05:09;;;;;;;;;;;20.30;94.60;;;;;;5113571;27;19951;-78
2023/06/30 10:07:35;;;;;;;;;;;20.30;95.70;;;;;;5111592;27;19934;-78
2023/06/30 10:10:02;;;;;;;;;;;20.50;95.90;;;;;;5088771;28;19927;-77
2023/06/30 10:12:28;;;;;;;;;;;20.70;96.40;;;;;;5077301;28;19966;-77
2023/06/30 10:14:54;;;;;;;;;;;20.80;94.70;;;;;;5115846;27;19966;-78
2023/06/30 10:17:20;;;;;;;;;;;20.90;93.10;;;;;;5115860;27;19935;-76
2023/06/30 10:19:45;;;;;;;;;;;20.90;93.70;;;;;;5122801;27;19919;-76
2023/06/30 10:22:12;;;;;;;;;;;21.10;94.90;;;;;;5126602;27;19930;-76
2023/06/30 10:24:41;;;;;;;;;;;21.10;93.80;;;;;;5122601;27;19998;-77
2023/06/30 10:27:07;;;;;;;;;;;21.00;93.90;;;;;;5084406;28;19920;-77
2023/06/30 10:29:34;;;;;;;;;;;21.00;94.00;;;;;;5113070;28;19942;-77
2023/06/30 10:31:59;;;;;;;;;;;21.00;92.90;;;;;;5101830;27;20527;-76
2023/06/30 10:34:25;;;;;;;;;;;21.00;93.80;;;;;;5116232;27;19961;-75
2023/06/30 10:36:51;;;;;;;;;;;21.20;93.80;;;;;;5116126;27;19924;-78
2023/06/30 10:39:17;;;;;;;;;;;21.50;93.50;;;;;;5095522;27;20395;-76
2023/06/30 10:41:46;;;;;;;;;;;21.70;92.80;;;;;;5103479;27;19955;-77
2023/06/30 10:44:12;;;;;;;;;;;22.00;94.40;;;;;;5109897;28;19920;-77
2023/06/30 10:46:45;;;;;;;;;;;22.10;93.20;;;;;;5107987;27;20414;-80
2023/06/30 10:49:17;;;;;;;;;;;22.30;92.30;;;;;;5103918;28;19916;-76
2023/06/30 10:51:46;;;;;;;;;;;22.50;91.40;;;;;;5084648;28;19935;-76
2023/06/30 10:54:18;;;;;;;;;;;22.70;92.70;;;;;;5110211;28;19942;-75
2023/06/30 10:56:44;;;;;;;;;;;23.00;92.90;;;;;;5106302;28;19923;-76
2023/06/30 10:59:15;;;;;;;;;;;23.30;91.00;;;;;;5111739;27;19938;-77
2023/06/30 11:02:01;;;;;;;;;;;23.20;90.00;;;;;;5121562;27;19915;-77
2023/06/30 11:04:35;;;;;;;;;;;23.10;91.50;;;;;;5114028;27;19970;-78
2023/06/30 11:07:05;;;;;;;;;;;23.10;91.20;;;;;;5109785;27;19916;-77
2023/06/30 11:09:46;;;;;;;;;;;23.10;91.00;;;;;;5111681;28;19927;-77
2023/06/30 11:12:14;;;;;;;;;;;23.30;87.20;;;;;;5112368;27;19919;-76
2023/06/30 11:14:49;;;;;;;;;;;23.40;88.40;;;;;;5099249;27;19926;-78
2023/06/30 11:17:15;;;;;;;;;;;23.70;90.10;;;;;;5109497;27;19932;-78
2023/06/30 11:19:54;;;;;;;;;;;23.80;88.50;;;;;;5104605;27;19920;-77
2023/06/30 11:22:32;;;;;;;;;;;23.90;88.00;;;;;;5127516;27;19991;-77
2023/06/30 11:24:57;;;;;;;;;;;23.60;87.70;;;;;;5111031;27;19920;-76
2023/06/30 11:27:27;;;;;;;;;;;23.30;84.30;;;;;;5094676;28;19920;-76
2023/06/30 11:29:54;;;;;;;;;;;23.00;84.70;;;;;;5123228;27;19904;-75
2023/06/30 11:32:27;;;;;;;;;;;23.00;88.50;;;;;;5134436;27;19931;-77
2023/06/30 11:34:52;;;;;;;;;;;23.00;86.70;;;;;;5118598;28;19926;-77
2023/06/30 11:37:18;;;;;;;;;;;22.90;89.30;;;;;;5111375;27;19919;-77
2023/06/30 11:40:13;;;;;;;;;;;22.80;87.50;;;;;;5119689;27;19967;-76
2023/06/30 11:42:39;;;;;;;;;;;22.80;88.10;;;;;;5089664;27;19919;-78
2023/06/30 11:45:08;;;;;;;;;;;23.00;90.20;;;;;;5133524;27;19969;-77
2023/06/30 11:47:34;;;;;;;;;;;23.30;90.50;;;;;;5105200;28;20097;-79
2023/06/30 11:50:07;;;;;;;;;;;23.50;89.70;;;;;;5073679;27;19919;-77
2023/06/30 11:52:33;;;;;;;;;;;23.70;90.10;;;;;;5107303;28;19907;-79
2023/06/30 11:55:02;;;;;;;;;;;23.90;89.70;;;;;;5127989;27;19926;-77
2023/06/30 11:57:32;;;;;;;;;;;24.10;84.00;;;;;;5140984;27;20364;-75
2023/06/30 11:59:57;;;;;;;;;;;24.20;85.60;;;;;;5100946;28;19919;-75
2023/06/30 12:02:23;;;;;;;;;;;24.20;85.20;;;;;;5102744;27;19919;-76
2023/06/30 12:04:48;;;;;;;;;;;24.20;81.10;;;;;;5110436;28;19919;-77
2023/06/30 12:07:14;;;;;;;;;;;24.00;83.00;;;;;;5125642;27;20003;-76
2023/06/30 12:09:40;;;;;;;;;;;24.10;86.00;;;;;;5095354;27;20293;-77
2023/06/30 12:12:07;;;;;;;;;;;24.20;86.30;;;;;;5116474;27;19924;-76
2023/06/30 12:14:39;;;;;;;;;;;24.30;83.30;;;;;;5131165;27;19920;-78
2023/06/30 12:17:04;;;;;;;;;;;24.30;85.50;;;;;;5110339;28;19941;-77
2023/06/30 12:19:30;;;;;;;;;;;24.40;84.90;;;;;;5116413;27;19919;-78
2023/06/30 12:21:59;;;;;;;;;;;24.60;85.70;;;;;;5079605;28;20050;-77
2023/06/30 12:24:29;;;;;;;;;;;24.70;81.30;;;;;;5107303;28;20300;-76
2023/06/30 12:26:54;;;;;;;;;;;24.60;81.90;;;;;;5108930;28;19924;-77
2023/06/30 12:29:20;;;;;;;;;;;24.60;82.10;;;;;;5113446;27;20003;-75
2023/06/30 12:31:47;;;;;;;;;;;24.50;78.40;;;;;;5087340;27;19920;-76
2023/06/30 12:34:13;;;;;;;;;;;24.50;79.60;;;;;;5100739;28;19927;-77
2023/06/30 12:36:39;;;;;;;;;;;24.20;79.90;;;;;;5079277;28;19920;-76
2023/06/30 12:39:05;;;;;;;;;;;24.20;80.10;;;;;;5097670;27;19977;-77
2023/06/30 12:41:31;;;;;;;;;;;24.20;78.80;;;;;;5101137;27;19928;-76
2023/06/30 12:43:58;;;;;;;;;;;24.40;81.10;;;;;;5110491;27;19919;-76
2023/06/30 12:46:31;;;;;;;;;;;24.40;78.50;;;;;;5120099;27;20061;-77
2023/06/30 12:48:57;;;;;;;;;;;24.20;79.60;;;;;;5113046;28;19920;-76
2023/06/30 12:51:22;;;;;;;;;;;23.80;80.50;;;;;;5109292;28;20020;-74
2023/06/30 12:53:48;;;;;;;;;;;23.60;82.60;;;;;;5111761;28;19920;-77
2023/06/30 12:56:14;;;;;;;;;;;23.80;82.70;;;;;;5087662;27;19930;-77
2023/06/30 12:58:39;;;;;;;;;;;24.00;80.20;;;;;;5114282;27;19919;-77
2023/06/30 13:01:05;;;;;;;;;;;24.00;80.80;;;;;;5100441;28;19920;-77
2023/06/30 13:03:34;;;;;;;;;;;24.20;81.30;;;;;;5065950;28;19924;-77
2023/06/30 13:06:00;;;;;;;;;;;24.20;81.60;;;;;;5105484;27;19962;-77
2023/06/30 13:08:25;;;;;;;;;;;24.30;79.70;;;;;;5109584;27;19920;-78
2023/06/30 13:10:51;;;;;;;;;;;24.20;81.00;;;;;;5102612;28;20409;-76
2023/06/30 13:13:17;;;;;;;;;;;24.30;83.20;;;;;;5114161;28;19920;-78
2023/06/30 13:15:42;;;;;;;;;;;24.60;82.20;;;;;;5096285;28;19920;-76
2023/06/30 13:18:08;;;;;;;;;;;24.70;80.30;;;;;;5084569;28;19928;-76
2023/06/30 13:20:37;;;;;;;;;;;24.60;79.40;;;;;;5122556;27;19919;-76
2023/06/30 13:23:02;;;;;;;;;;;24.60;78.90;;;;;;5105182;28;19979;-77
2023/06/30 13:25:29;;;;;;;;;;;24.50;80.60;;;;;;5091749;28;19920;-78
2023/06/30 13:27:57;;;;;;;;;;;24.40;77.30;;;;;;5094429;28;19973;-77
2023/06/30 13:30:22;;;;;;;;;;;24.30;81.10;;;;;;5102843;28;19977;-79
2023/06/30 13:32:50;;;;;;;;;;;24.30;79.20;;;;;;5103713;28;19920;-76
2023/06/30 13:35:16;;;;;;;;;;;24.40;82.50;;;;;;5086555;28;20396;-76
2023/06/30 13:37:41;;;;;;;;;;;24.50;80.30;;;;;;5111489;28;19920;-79
2023/06/30 13:40:07;;;;;;;;;;;24.50;81.10;;;;;;5101511;28;21226;-77
2023/06/30 13:42:34;;;;;;;;;;;24.60;81.40;;;;;;5101912;28;19920;-77
2023/06/30 13:44:59;;;;;;;;;;;24.50;80.30;;;;;;5109969;28;19971;-77
2023/06/30 13:47:25;;;;;;;;;;;24.50;83.40;;;;;;5103370;28;19955;-77
2023/06/30 13:49:50;;;;;;;;;;;24.60;82.70;;;;;;5107218;28;19920;-77
2023/06/30 13:52:16;;;;;;;;;;;24.60;81.00;;;;;;5101377;28;20022;-78
2023/06/30 13:54:42;;;;;;;;;;;24.60;81.40;;;;;;5110618;28;19920;-77
2023/06/30 13:57:08;;;;;;;;;;;24.60;80.50;;;;;;5098379;28;19951;-77
2023/06/30 13:59:33;;;;;;;;;;;24.50;80.20;;;;;;5081893;28;20301;-79
2023/06/30 14:01:59;;;;;;;;;;;24.50;80.70;;;;;;5115231;28;19919;-78
2023/06/30 14:04:24;;;;;;;;;;;24.50;79.50;;;;;;5113957;28;20002;-77
2023/06/30 14:06:50;;;;;;;;;;;24.50;79.00;;;;;;5101084;28;19924;-78
2023/06/30 14:09:16;;;;;;;;;;;24.40;78.90;;;;;;5105513;28;19926;-78
2023/06/30 14:11:41;;;;;;;;;;;24.40;80.00;;;;;;5105201;28;19920;-78
2023/06/30 14:14:07;;;;;;;;;;;24.40;80.40;;;;;;5088520;28;19946;-78